sensor_id;sensor_type;location;lat;lon;timestamp;P1;durP1;ratioP1;P2;durP2;ratioP2
55601;SDS011;59921;51.332;12.410;2023-05-02T00:01:39;5.00;;;3.70;;
55601;SDS011;59921;51.332;12.410;2023-05-02T00:04:05;4.82;;;4.00;;
55601;SDS011;59921;51.332;12.410;2023-05-02T00:06:30;5.18;;;3.78;;
55601;SDS011;59921;51.332;12.410;2023-05-02T00:08:56;5.05;;;3.78;;
55601;SDS011;59921;51.332;12.410;2023-05-02T00:11:21;4.47;;;3.75;;
55601;SDS011;59921;51.332;12.410;2023-05-02T00:13:48;4.95;;;3.80;;
55601;SDS011;59921;51.332;12.410;2023-05-02T00:16:14;4.78;;;3.83;;
55601;SDS011;59921;51.332;12.410;2023-05-02T00:18:39;5.80;;;4.25;;
55601;SDS011;59921;51.332;12.410;2023-05-02T00:21:05;5.25;;;3.80;;
55601;SDS011;59921;51.332;12.410;2023-05-02T00:23:31;5.25;;;4.15;;
55601;SDS011;59921;51.332;12.410;2023-05-02T00:25:57;5.40;;;4.15;;
55601;SDS011;59921;51.332;12.410;2023-05-02T00:28:22;5.07;;;4.03;;
55601;SDS011;59921;51.332;12.410;2023-05-02T00:30:48;5.55;;;3.95;;
55601;SDS011;59921;51.332;12.410;2023-05-02T00:33:13;5.20;;;3.85;;
55601;SDS011;59921;51.332;12.410;2023-05-02T00:35:39;5.45;;;4.00;;
55601;SDS011;59921;51.332;12.410;2023-05-02T00:38:05;5.43;;;3.92;;
55601;SDS011;59921;51.332;12.410;2023-05-02T00:40:41;5.10;;;3.90;;
55601;SDS011;59921;51.332;12.410;2023-05-02T00:43:10;5.50;;;4.20;;
55601;SDS011;59921;51.332;12.410;2023-05-02T00:45:36;5.55;;;4.00;;
55601;SDS011;59921;51.332;12.410;2023-05-02T00:48:05;4.80;;;3.80;;
55601;SDS011;59921;51.332;12.410;2023-05-02T00:50:31;5.30;;;4.00;;
55601;SDS011;59921;51.332;12.410;2023-05-02T00:52:59;4.65;;;3.70;;
55601;SDS011;59921;51.332;12.410;2023-05-02T00:55:24;5.95;;;4.30;;
55601;SDS011;59921;51.332;12.410;2023-05-02T00:57:50;5.55;;;4.10;;
55601;SDS011;59921;51.332;12.410;2023-05-02T01:00:16;5.18;;;4.05;;
55601;SDS011;59921;51.332;12.410;2023-05-02T01:02:45;5.07;;;4.00;;
55601;SDS011;59921;51.332;12.410;2023-05-02T01:05:20;4.85;;;3.92;;
55601;SDS011;59921;51.332;12.410;2023-05-02T01:13:35;5.88;;;4.38;;
55601;SDS011;59921;51.332;12.410;2023-05-02T01:16:02;4.65;;;3.90;;
55601;SDS011;59921;51.332;12.410;2023-05-02T01:18:31;5.72;;;4.45;;
55601;SDS011;59921;51.332;12.410;2023-05-02T01:21:00;5.30;;;4.00;;
55601;SDS011;59921;51.332;12.410;2023-05-02T01:23:30;5.18;;;3.95;;
55601;SDS011;59921;51.332;12.410;2023-05-02T01:31:20;5.55;;;4.20;;
55601;SDS011;59921;51.332;12.410;2023-05-02T01:33:49;5.65;;;4.15;;
55601;SDS011;59921;51.332;12.410;2023-05-02T01:36:16;5.85;;;4.25;;
55601;SDS011;59921;51.332;12.410;2023-05-02T01:38:42;6.30;;;4.53;;
55601;SDS011;59921;51.332;12.410;2023-05-02T01:41:09;5.63;;;4.25;;
55601;SDS011;59921;51.332;12.410;2023-05-02T01:43:36;5.78;;;4.18;;
55601;SDS011;59921;51.332;12.410;2023-05-02T01:46:03;4.93;;;3.90;;
55601;SDS011;59921;51.332;12.410;2023-05-02T01:48:33;4.72;;;3.85;;
55601;SDS011;59921;51.332;12.410;2023-05-02T01:51:00;4.85;;;4.00;;
55601;SDS011;59921;51.332;12.410;2023-05-02T01:53:27;5.30;;;4.18;;
55601;SDS011;59921;51.332;12.410;2023-05-02T01:55:54;5.15;;;3.88;;
55601;SDS011;59921;51.332;12.410;2023-05-02T01:58:23;5.78;;;4.10;;
55601;SDS011;59921;51.332;12.410;2023-05-02T02:00:55;5.53;;;4.20;;
55601;SDS011;59921;51.332;12.410;2023-05-02T02:03:24;4.88;;;4.05;;
55601;SDS011;59921;51.332;12.410;2023-05-02T02:05:51;5.85;;;4.20;;
55601;SDS011;59921;51.332;12.410;2023-05-02T02:08:19;5.05;;;4.05;;
55601;SDS011;59921;51.332;12.410;2023-05-02T02:10:45;5.63;;;4.35;;
55601;SDS011;59921;51.332;12.410;2023-05-02T02:13:18;5.45;;;4.20;;
55601;SDS011;59921;51.332;12.410;2023-05-02T02:15:49;6.18;;;4.30;;
55601;SDS011;59921;51.332;12.410;2023-05-02T02:18:19;5.30;;;4.20;;
55601;SDS011;59921;51.332;12.410;2023-05-02T02:20:46;5.10;;;3.92;;
55601;SDS011;59921;51.332;12.410;2023-05-02T02:23:13;4.53;;;3.72;;
55601;SDS011;59921;51.332;12.410;2023-05-02T02:25:40;5.65;;;4.30;;
55601;SDS011;59921;51.332;12.410;2023-05-02T02:28:07;5.43;;;3.97;;
55601;SDS011;59921;51.332;12.410;2023-05-02T02:30:33;5.68;;;4.32;;
55601;SDS011;59921;51.332;12.410;2023-05-02T02:32:59;5.97;;;4.22;;
55601;SDS011;59921;51.332;12.410;2023-05-02T02:35:41;5.43;;;4.40;;
55601;SDS011;59921;51.332;12.410;2023-05-02T02:41:09;5.45;;;4.15;;
55601;SDS011;59921;51.332;12.410;2023-05-02T02:54:46;5.32;;;4.18;;
55601;SDS011;59921;51.332;12.410;2023-05-02T02:57:17;6.38;;;4.45;;
55601;SDS011;59921;51.332;12.410;2023-05-02T03:02:21;6.35;;;4.57;;
55601;SDS011;59921;51.332;12.410;2023-05-02T03:04:53;5.70;;;4.22;;
55601;SDS011;59921;51.332;12.410;2023-05-02T03:07:20;6.40;;;4.65;;
55601;SDS011;59921;51.332;12.410;2023-05-02T03:09:46;5.65;;;4.60;;
55601;SDS011;59921;51.332;12.410;2023-05-02T03:12:12;5.63;;;4.32;;
55601;SDS011;59921;51.332;12.410;2023-05-02T03:14:38;5.07;;;4.00;;
55601;SDS011;59921;51.332;12.410;2023-05-02T03:17:05;5.78;;;4.38;;
55601;SDS011;59921;51.332;12.410;2023-05-02T03:19:32;5.97;;;4.53;;
55601;SDS011;59921;51.332;12.410;2023-05-02T03:21:58;6.20;;;4.50;;
55601;SDS011;59921;51.332;12.410;2023-05-02T03:24:24;6.63;;;4.38;;
55601;SDS011;59921;51.332;12.410;2023-05-02T03:26:54;6.40;;;4.88;;
55601;SDS011;59921;51.332;12.410;2023-05-02T03:29:21;6.57;;;4.90;;
55601;SDS011;59921;51.332;12.410;2023-05-02T03:31:47;6.47;;;4.80;;
55601;SDS011;59921;51.332;12.410;2023-05-02T03:34:12;6.25;;;4.60;;
55601;SDS011;59921;51.332;12.410;2023-05-02T03:36:38;6.40;;;4.65;;
55601;SDS011;59921;51.332;12.410;2023-05-02T03:39:03;6.90;;;5.00;;
55601;SDS011;59921;51.332;12.410;2023-05-02T03:41:29;6.38;;;4.78;;
55601;SDS011;59921;51.332;12.410;2023-05-02T03:43:54;6.47;;;5.03;;
55601;SDS011;59921;51.332;12.410;2023-05-02T03:46:20;5.75;;;4.60;;
55601;SDS011;59921;51.332;12.410;2023-05-02T03:48:45;6.35;;;4.63;;
55601;SDS011;59921;51.332;12.410;2023-05-02T03:51:11;6.70;;;4.72;;
55601;SDS011;59921;51.332;12.410;2023-05-02T03:53:37;6.80;;;4.60;;
55601;SDS011;59921;51.332;12.410;2023-05-02T03:56:03;6.40;;;4.78;;
55601;SDS011;59921;51.332;12.410;2023-05-02T03:58:28;6.25;;;4.43;;
55601;SDS011;59921;51.332;12.410;2023-05-02T04:00:54;6.95;;;4.80;;
55601;SDS011;59921;51.332;12.410;2023-05-02T04:03:20;6.82;;;4.95;;
55601;SDS011;59921;51.332;12.410;2023-05-02T04:05:46;5.90;;;4.53;;
55601;SDS011;59921;51.332;12.410;2023-05-02T04:08:12;5.65;;;4.50;;
55601;SDS011;59921;51.332;12.410;2023-05-02T04:10:37;6.32;;;4.78;;
55601;SDS011;59921;51.332;12.410;2023-05-02T04:13:03;5.85;;;4.60;;
55601;SDS011;59921;51.332;12.410;2023-05-02T04:15:29;6.32;;;4.70;;
55601;SDS011;59921;51.332;12.410;2023-05-02T04:17:58;6.00;;;4.45;;
55601;SDS011;59921;51.332;12.410;2023-05-02T04:20:24;6.60;;;4.88;;
55601;SDS011;59921;51.332;12.410;2023-05-02T04:22:50;5.85;;;4.40;;
55601;SDS011;59921;51.332;12.410;2023-05-02T04:25:16;5.85;;;4.60;;
55601;SDS011;59921;51.332;12.410;2023-05-02T04:27:41;6.50;;;4.63;;
55601;SDS011;59921;51.332;12.410;2023-05-02T04:30:07;6.63;;;4.53;;
55601;SDS011;59921;51.332;12.410;2023-05-02T04:32:34;6.55;;;4.60;;
55601;SDS011;59921;51.332;12.410;2023-05-02T04:35:00;6.32;;;4.70;;
55601;SDS011;59921;51.332;12.410;2023-05-02T04:37:26;6.85;;;4.53;;
55601;SDS011;59921;51.332;12.410;2023-05-02T04:39:51;7.10;;;4.80;;
55601;SDS011;59921;51.332;12.410;2023-05-02T04:42:17;5.72;;;4.47;;
55601;SDS011;59921;51.332;12.410;2023-05-02T04:44:42;6.53;;;4.53;;
55601;SDS011;59921;51.332;12.410;2023-05-02T04:47:08;5.10;;;4.10;;
55601;SDS011;59921;51.332;12.410;2023-05-02T04:49:33;6.13;;;4.55;;
55601;SDS011;59921;51.332;12.410;2023-05-02T04:51:59;6.30;;;4.60;;
55601;SDS011;59921;51.332;12.410;2023-05-02T04:54:24;5.82;;;4.53;;
55601;SDS011;59921;51.332;12.410;2023-05-02T04:56:50;6.15;;;4.55;;
55601;SDS011;59921;51.332;12.410;2023-05-02T04:59:15;5.35;;;4.30;;
55601;SDS011;59921;51.332;12.410;2023-05-02T05:01:41;6.32;;;4.82;;
55601;SDS011;59921;51.332;12.410;2023-05-02T05:04:06;6.38;;;4.68;;
55601;SDS011;59921;51.332;12.410;2023-05-02T05:06:32;6.65;;;4.65;;
55601;SDS011;59921;51.332;12.410;2023-05-02T05:08:57;5.93;;;4.50;;
55601;SDS011;59921;51.332;12.410;2023-05-02T05:11:24;5.57;;;4.43;;
55601;SDS011;59921;51.332;12.410;2023-05-02T05:13:50;5.72;;;4.40;;
55601;SDS011;59921;51.332;12.410;2023-05-02T05:16:15;6.75;;;4.60;;
55601;SDS011;59921;51.332;12.410;2023-05-02T05:18:41;5.60;;;4.40;;
55601;SDS011;59921;51.332;12.410;2023-05-02T05:21:09;5.88;;;4.10;;
55601;SDS011;59921;51.332;12.410;2023-05-02T05:23:35;5.40;;;4.20;;
55601;SDS011;59921;51.332;12.410;2023-05-02T05:26:08;6.13;;;4.25;;
55601;SDS011;59921;51.332;12.410;2023-05-02T05:28:35;6.03;;;4.60;;
55601;SDS011;59921;51.332;12.410;2023-05-02T05:31:07;4.97;;;4.07;;
55601;SDS011;59921;51.332;12.410;2023-05-02T05:33:35;5.00;;;4.03;;
55601;SDS011;59921;51.332;12.410;2023-05-02T05:38:30;5.25;;;4.18;;
55601;SDS011;59921;51.332;12.410;2023-05-02T05:40:56;6.32;;;4.47;;
55601;SDS011;59921;51.332;12.410;2023-05-02T05:43:22;4.72;;;3.83;;
55601;SDS011;59921;51.332;12.410;2023-05-02T05:45:50;5.40;;;4.10;;
55601;SDS011;59921;51.332;12.410;2023-05-02T05:48:16;5.60;;;4.18;;
55601;SDS011;59921;51.332;12.410;2023-05-02T05:50:42;5.90;;;4.10;;
55601;SDS011;59921;51.332;12.410;2023-05-02T05:53:07;4.85;;;3.67;;
55601;SDS011;59921;51.332;12.410;2023-05-02T05:55:33;5.35;;;3.97;;
55601;SDS011;59921;51.332;12.410;2023-05-02T05:57:58;5.88;;;4.00;;
55601;SDS011;59921;51.332;12.410;2023-05-02T06:00:24;5.93;;;3.95;;
55601;SDS011;59921;51.332;12.410;2023-05-02T06:02:53;5.18;;;3.80;;
55601;SDS011;59921;51.332;12.410;2023-05-02T06:05:18;4.78;;;3.80;;
55601;SDS011;59921;51.332;12.410;2023-05-02T06:07:44;5.45;;;3.90;;
55601;SDS011;59921;51.332;12.410;2023-05-02T06:10:12;5.70;;;4.20;;
55601;SDS011;59921;51.332;12.410;2023-05-02T06:12:37;5.10;;;4.00;;
55601;SDS011;59921;51.332;12.410;2023-05-02T06:15:03;5.10;;;3.97;;
55601;SDS011;59921;51.332;12.410;2023-05-02T06:17:29;4.88;;;4.00;;
55601;SDS011;59921;51.332;12.410;2023-05-02T06:19:55;5.47;;;4.03;;
55601;SDS011;59921;51.332;12.410;2023-05-02T06:22:20;4.97;;;3.97;;
55601;SDS011;59921;51.332;12.410;2023-05-02T06:24:46;5.72;;;3.67;;
55601;SDS011;59921;51.332;12.410;2023-05-02T06:27:12;4.95;;;3.70;;
55601;SDS011;59921;51.332;12.410;2023-05-02T06:29:37;5.15;;;3.80;;
55601;SDS011;59921;51.332;12.410;2023-05-02T06:32:03;4.85;;;3.70;;
55601;SDS011;59921;51.332;12.410;2023-05-02T06:34:31;5.30;;;4.00;;
55601;SDS011;59921;51.332;12.410;2023-05-02T06:36:57;4.82;;;3.72;;
55601;SDS011;59921;51.332;12.410;2023-05-02T06:39:23;5.95;;;4.03;;
55601;SDS011;59921;51.332;12.410;2023-05-02T06:41:49;4.95;;;3.53;;
55601;SDS011;59921;51.332;12.410;2023-05-02T06:44:15;5.03;;;3.70;;
55601;SDS011;59921;51.332;12.410;2023-05-02T06:46:40;5.35;;;4.00;;
55601;SDS011;59921;51.332;12.410;2023-05-02T06:49:06;6.03;;;4.05;;
55601;SDS011;59921;51.332;12.410;2023-05-02T06:51:32;5.30;;;3.90;;
55601;SDS011;59921;51.332;12.410;2023-05-02T06:53:57;5.65;;;4.25;;
55601;SDS011;59921;51.332;12.410;2023-05-02T06:56:23;4.95;;;3.72;;
55601;SDS011;59921;51.332;12.410;2023-05-02T06:58:52;4.93;;;3.72;;
55601;SDS011;59921;51.332;12.410;2023-05-02T07:01:17;5.13;;;4.10;;
55601;SDS011;59921;51.332;12.410;2023-05-02T07:03:52;4.70;;;3.60;;
55601;SDS011;59921;51.332;12.410;2023-05-02T07:06:18;5.80;;;3.83;;
55601;SDS011;59921;51.332;12.410;2023-05-02T07:08:44;5.57;;;3.90;;
55601;SDS011;59921;51.332;12.410;2023-05-02T07:11:10;5.32;;;3.70;;
55601;SDS011;59921;51.332;12.410;2023-05-02T07:13:35;5.30;;;3.95;;
55601;SDS011;59921;51.332;12.410;2023-05-02T07:16:01;5.28;;;4.10;;
55601;SDS011;59921;51.332;12.410;2023-05-02T07:18:26;5.75;;;4.25;;
55601;SDS011;59921;51.332;12.410;2023-05-02T07:20:52;4.95;;;3.60;;
55601;SDS011;59921;51.332;12.410;2023-05-02T07:23:18;5.32;;;3.70;;
55601;SDS011;59921;51.332;12.410;2023-05-02T07:25:46;5.40;;;4.22;;
55601;SDS011;59921;51.332;12.410;2023-05-02T07:28:11;5.32;;;3.90;;
55601;SDS011;59921;51.332;12.410;2023-05-02T07:30:37;5.38;;;3.88;;
55601;SDS011;59921;51.332;12.410;2023-05-02T07:33:03;5.70;;;4.20;;
55601;SDS011;59921;51.332;12.410;2023-05-02T07:35:28;5.35;;;4.03;;
55601;SDS011;59921;51.332;12.410;2023-05-02T07:37:54;5.88;;;4.15;;
55601;SDS011;59921;51.332;12.410;2023-05-02T07:40:20;6.20;;;4.47;;
55601;SDS011;59921;51.332;12.410;2023-05-02T07:42:45;5.65;;;4.57;;
55601;SDS011;59921;51.332;12.410;2023-05-02T07:45:11;5.78;;;4.18;;
55601;SDS011;59921;51.332;12.410;2023-05-02T07:47:36;6.35;;;4.30;;
55601;SDS011;59921;51.332;12.410;2023-05-02T07:50:02;6.82;;;4.70;;
55601;SDS011;59921;51.332;12.410;2023-05-02T07:52:28;5.70;;;4.25;;
55601;SDS011;59921;51.332;12.410;2023-05-02T07:54:54;6.43;;;4.78;;
55601;SDS011;59921;51.332;12.410;2023-05-02T07:57:20;6.25;;;4.45;;
55601;SDS011;59921;51.332;12.410;2023-05-02T07:59:46;5.88;;;4.38;;
55601;SDS011;59921;51.332;12.410;2023-05-02T08:02:11;5.22;;;3.92;;
55601;SDS011;59921;51.332;12.410;2023-05-02T08:04:38;6.70;;;4.70;;
55601;SDS011;59921;51.332;12.410;2023-05-02T08:07:04;6.55;;;4.38;;
55601;SDS011;59921;51.332;12.410;2023-05-02T08:09:30;5.45;;;4.18;;
55601;SDS011;59921;51.332;12.410;2023-05-02T08:11:56;6.20;;;4.60;;
55601;SDS011;59921;51.332;12.410;2023-05-02T08:14:21;5.15;;;4.00;;
55601;SDS011;59921;51.332;12.410;2023-05-02T08:16:47;6.13;;;4.43;;
55601;SDS011;59921;51.332;12.410;2023-05-02T08:19:13;6.47;;;4.55;;
55601;SDS011;59921;51.332;12.410;2023-05-02T08:21:39;5.95;;;4.20;;
55601;SDS011;59921;51.332;12.410;2023-05-02T08:24:04;5.18;;;4.10;;
55601;SDS011;59921;51.332;12.410;2023-05-02T08:26:30;6.07;;;4.28;;
55601;SDS011;59921;51.332;12.410;2023-05-02T08:28:56;5.30;;;4.05;;
55601;SDS011;59921;51.332;12.410;2023-05-02T08:31:21;6.95;;;4.60;;
55601;SDS011;59921;51.332;12.410;2023-05-02T08:33:47;6.05;;;4.30;;
55601;SDS011;59921;51.332;12.410;2023-05-02T08:36:13;5.53;;;4.22;;
55601;SDS011;59921;51.332;12.410;2023-05-02T08:38:41;6.22;;;4.30;;
55601;SDS011;59921;51.332;12.410;2023-05-02T08:41:10;5.78;;;4.18;;
55601;SDS011;59921;51.332;12.410;2023-05-02T08:43:41;6.32;;;4.88;;
55601;SDS011;59921;51.332;12.410;2023-05-02T08:46:08;4.75;;;3.80;;
55601;SDS011;59921;51.332;12.410;2023-05-02T08:48:35;6.82;;;4.90;;
55601;SDS011;59921;51.332;12.410;2023-05-02T08:51:02;6.68;;;4.50;;
55601;SDS011;59921;51.332;12.410;2023-05-02T08:53:30;6.35;;;4.60;;
55601;SDS011;59921;51.332;12.410;2023-05-02T08:55:58;5.75;;;4.05;;
55601;SDS011;59921;51.332;12.410;2023-05-02T08:58:24;6.47;;;4.57;;
55601;SDS011;59921;51.332;12.410;2023-05-02T09:00:50;6.70;;;4.60;;
55601;SDS011;59921;51.332;12.410;2023-05-02T09:03:29;6.00;;;4.65;;
55601;SDS011;59921;51.332;12.410;2023-05-02T09:08:33;6.60;;;4.53;;
55601;SDS011;59921;51.332;12.410;2023-05-02T09:11:03;5.35;;;4.00;;
55601;SDS011;59921;51.332;12.410;2023-05-02T09:13:36;5.88;;;4.47;;
55601;SDS011;59921;51.332;12.410;2023-05-02T09:16:10;6.65;;;4.38;;
55601;SDS011;59921;51.332;12.410;2023-05-02T09:21:13;5.68;;;4.20;;
55601;SDS011;59921;51.332;12.410;2023-05-02T09:23:47;5.90;;;4.40;;
55601;SDS011;59921;51.332;12.410;2023-05-02T09:28:47;6.07;;;4.18;;
55601;SDS011;59921;51.332;12.410;2023-05-02T09:31:18;6.10;;;4.13;;
55601;SDS011;59921;51.332;12.410;2023-05-02T09:33:51;5.72;;;4.35;;
55601;SDS011;59921;51.332;12.410;2023-05-02T09:36:18;6.38;;;4.32;;
55601;SDS011;59921;51.332;12.410;2023-05-02T09:38:46;5.75;;;4.28;;
55601;SDS011;59921;51.332;12.410;2023-05-02T09:41:13;6.05;;;4.30;;
55601;SDS011;59921;51.332;12.410;2023-05-02T09:43:42;6.28;;;4.15;;
55601;SDS011;59921;51.332;12.410;2023-05-02T09:46:09;6.68;;;4.32;;
55601;SDS011;59921;51.332;12.410;2023-05-02T09:51:23;6.32;;;4.40;;
55601;SDS011;59921;51.332;12.410;2023-05-02T09:53:49;5.82;;;4.15;;
55601;SDS011;59921;51.332;12.410;2023-05-02T09:56:15;6.65;;;4.50;;
55601;SDS011;59921;51.332;12.410;2023-05-02T09:58:42;5.20;;;4.10;;
55601;SDS011;59921;51.332;12.410;2023-05-02T10:01:13;6.00;;;4.22;;
55601;SDS011;59921;51.332;12.410;2023-05-02T10:03:39;5.72;;;4.38;;
55601;SDS011;59921;51.332;12.410;2023-05-02T10:06:06;6.00;;;4.38;;
55601;SDS011;59921;51.332;12.410;2023-05-02T10:08:33;6.43;;;4.55;;
55601;SDS011;59921;51.332;12.410;2023-05-02T10:10:59;6.60;;;4.30;;
55601;SDS011;59921;51.332;12.410;2023-05-02T10:13:29;5.57;;;4.25;;
55601;SDS011;59921;51.332;12.410;2023-05-02T10:15:59;5.57;;;4.28;;
55601;SDS011;59921;51.332;12.410;2023-05-02T10:18:28;6.60;;;4.43;;
55601;SDS011;59921;51.332;12.410;2023-05-02T10:21:03;5.78;;;4.30;;
55601;SDS011;59921;51.332;12.410;2023-05-02T10:23:32;6.25;;;4.40;;
55601;SDS011;59921;51.332;12.410;2023-05-02T10:25:58;5.32;;;4.00;;
55601;SDS011;59921;51.332;12.410;2023-05-02T10:28:27;5.90;;;4.18;;
55601;SDS011;59921;51.332;12.410;2023-05-02T10:30:54;6.03;;;4.40;;
55601;SDS011;59921;51.332;12.410;2023-05-02T10:33:21;4.97;;;3.83;;
55601;SDS011;59921;51.332;12.410;2023-05-02T10:35:47;5.68;;;4.20;;
55601;SDS011;59921;51.332;12.410;2023-05-02T10:38:16;6.22;;;3.95;;
55601;SDS011;59921;51.332;12.410;2023-05-02T10:40:55;5.45;;;3.97;;
55601;SDS011;59921;51.332;12.410;2023-05-02T10:43:26;5.38;;;4.00;;
55601;SDS011;59921;51.332;12.410;2023-05-02T10:45:56;5.45;;;4.10;;
55601;SDS011;59921;51.332;12.410;2023-05-02T10:48:23;5.72;;;4.07;;
55601;SDS011;59921;51.332;12.410;2023-05-02T10:50:53;5.88;;;4.30;;
55601;SDS011;59921;51.332;12.410;2023-05-02T10:53:33;6.60;;;4.30;;
55601;SDS011;59921;51.332;12.410;2023-05-02T10:56:16;5.70;;;4.18;;
55601;SDS011;59921;51.332;12.410;2023-05-02T10:58:45;5.85;;;3.92;;
55601;SDS011;59921;51.332;12.410;2023-05-02T11:03:55;6.05;;;4.55;;
55601;SDS011;59921;51.332;12.410;2023-05-02T11:06:21;5.47;;;4.10;;
55601;SDS011;59921;51.332;12.410;2023-05-02T11:08:48;6.68;;;4.57;;
55601;SDS011;59921;51.332;12.410;2023-05-02T11:14:05;6.22;;;4.30;;
55601;SDS011;59921;51.332;12.410;2023-05-02T11:22:29;5.95;;;4.25;;
55601;SDS011;59921;51.332;12.410;2023-05-02T11:24:56;4.75;;;3.95;;
55601;SDS011;59921;51.332;12.410;2023-05-02T11:29:57;5.30;;;4.15;;
55601;SDS011;59921;51.332;12.410;2023-05-02T11:32:24;5.50;;;4.00;;
55601;SDS011;59921;51.332;12.410;2023-05-02T11:35:26;5.72;;;4.28;;
55601;SDS011;59921;51.332;12.410;2023-05-02T11:37:55;5.20;;;3.80;;
55601;SDS011;59921;51.332;12.410;2023-05-02T11:40:25;5.20;;;3.88;;
55601;SDS011;59921;51.332;12.410;2023-05-02T11:42:51;5.75;;;4.10;;
55601;SDS011;59921;51.332;12.410;2023-05-02T11:45:17;5.32;;;4.00;;
55601;SDS011;59921;51.332;12.410;2023-05-02T11:47:44;5.50;;;4.00;;
55601;SDS011;59921;51.332;12.410;2023-05-02T11:50:10;6.50;;;4.10;;
55601;SDS011;59921;51.332;12.410;2023-05-02T11:52:37;6.25;;;4.70;;
55601;SDS011;59921;51.332;12.410;2023-05-02T11:55:07;5.03;;;3.80;;
55601;SDS011;59921;51.332;12.410;2023-05-02T11:57:35;5.80;;;4.15;;
55601;SDS011;59921;51.332;12.410;2023-05-02T12:00:02;5.57;;;4.00;;
55601;SDS011;59921;51.332;12.410;2023-05-02T12:02:38;5.32;;;3.90;;
55601;SDS011;59921;51.332;12.410;2023-05-02T12:05:08;5.53;;;4.00;;
55601;SDS011;59921;51.332;12.410;2023-05-02T12:07:35;5.43;;;3.85;;
55601;SDS011;59921;51.332;12.410;2023-05-02T12:10:02;5.63;;;4.07;;
55601;SDS011;59921;51.332;12.410;2023-05-02T12:12:31;5.38;;;4.10;;
55601;SDS011;59921;51.332;12.410;2023-05-02T12:14:57;5.03;;;3.75;;
55601;SDS011;59921;51.332;12.410;2023-05-02T12:17:23;5.18;;;4.03;;
55601;SDS011;59921;51.332;12.410;2023-05-02T12:19:49;5.13;;;3.97;;
55601;SDS011;59921;51.332;12.410;2023-05-02T12:22:15;4.95;;;3.83;;
55601;SDS011;59921;51.332;12.410;2023-05-02T12:24:42;4.43;;;3.70;;
55601;SDS011;59921;51.332;12.410;2023-05-02T12:27:14;4.97;;;3.80;;
55601;SDS011;59921;51.332;12.410;2023-05-02T12:29:41;5.28;;;3.60;;
55601;SDS011;59921;51.332;12.410;2023-05-02T12:32:11;4.57;;;3.53;;
55601;SDS011;59921;51.332;12.410;2023-05-02T12:34:38;4.75;;;3.80;;
55601;SDS011;59921;51.332;12.410;2023-05-02T12:37:04;4.68;;;3.40;;
55601;SDS011;59921;51.332;12.410;2023-05-02T12:39:42;4.63;;;3.60;;
55601;SDS011;59921;51.332;12.410;2023-05-02T12:42:17;5.10;;;3.80;;
55601;SDS011;59921;51.332;12.410;2023-05-02T12:44:45;4.68;;;3.50;;
55601;SDS011;59921;51.332;12.410;2023-05-02T12:47:12;4.70;;;3.78;;
55601;SDS011;59921;51.332;12.410;2023-05-02T12:52:14;5.10;;;3.80;;
55601;SDS011;59921;51.332;12.410;2023-05-02T12:54:40;3.78;;;3.08;;
55601;SDS011;59921;51.332;12.410;2023-05-02T12:57:05;5.80;;;3.63;;
55601;SDS011;59921;51.332;12.410;2023-05-02T12:59:32;5.43;;;3.90;;
55601;SDS011;59921;51.332;12.410;2023-05-02T13:01:58;4.85;;;3.58;;
55601;SDS011;59921;51.332;12.410;2023-05-02T13:04:37;4.32;;;3.40;;
55601;SDS011;59921;51.332;12.410;2023-05-02T13:07:05;4.88;;;3.40;;
55601;SDS011;59921;51.332;12.410;2023-05-02T13:09:31;4.45;;;3.33;;
55601;SDS011;59921;51.332;12.410;2023-05-02T13:11:56;4.78;;;3.38;;
55601;SDS011;59921;51.332;12.410;2023-05-02T13:14:23;4.85;;;3.42;;
55601;SDS011;59921;51.332;12.410;2023-05-02T13:16:49;4.75;;;3.50;;
55601;SDS011;59921;51.332;12.410;2023-05-02T13:19:19;4.85;;;3.42;;
55601;SDS011;59921;51.332;12.410;2023-05-02T13:21:47;3.85;;;3.20;;
55601;SDS011;59921;51.332;12.410;2023-05-02T13:24:13;4.55;;;3.53;;
55601;SDS011;59921;51.332;12.410;2023-05-02T13:26:39;4.88;;;3.40;;
55601;SDS011;59921;51.332;12.410;2023-05-02T13:29:08;4.93;;;3.72;;
55601;SDS011;59921;51.332;12.410;2023-05-02T13:31:36;4.20;;;3.40;;
55601;SDS011;59921;51.332;12.410;2023-05-02T13:34:02;4.30;;;3.22;;
55601;SDS011;59921;51.332;12.410;2023-05-02T13:36:28;4.40;;;3.30;;
55601;SDS011;59921;51.332;12.410;2023-05-02T13:38:54;4.95;;;3.40;;
55601;SDS011;59921;51.332;12.410;2023-05-02T13:41:20;4.18;;;3.20;;
55601;SDS011;59921;51.332;12.410;2023-05-02T13:43:45;4.55;;;3.40;;
55601;SDS011;59921;51.332;12.410;2023-05-02T13:46:11;4.43;;;3.10;;
55601;SDS011;59921;51.332;12.410;2023-05-02T13:48:36;4.50;;;3.38;;
55601;SDS011;59921;51.332;12.410;2023-05-02T13:51:02;4.10;;;3.05;;
55601;SDS011;59921;51.332;12.410;2023-05-02T13:53:27;4.68;;;3.38;;
55601;SDS011;59921;51.332;12.410;2023-05-02T13:55:53;4.53;;;3.20;;
55601;SDS011;59921;51.332;12.410;2023-05-02T13:58:19;4.47;;;3.40;;
55601;SDS011;59921;51.332;12.410;2023-05-02T14:00:47;3.55;;;3.03;;
55601;SDS011;59921;51.332;12.410;2023-05-02T14:03:13;3.78;;;2.90;;
55601;SDS011;59921;51.332;12.410;2023-05-02T14:05:39;3.80;;;3.08;;
55601;SDS011;59921;51.332;12.410;2023-05-02T14:08:07;4.53;;;3.35;;
55601;SDS011;59921;51.332;12.410;2023-05-02T14:10:34;4.20;;;3.20;;
55601;SDS011;59921;51.332;12.410;2023-05-02T14:13:02;3.70;;;2.97;;
55601;SDS011;59921;51.332;12.410;2023-05-02T14:15:28;4.93;;;3.75;;
55601;SDS011;59921;51.332;12.410;2023-05-02T14:17:53;4.22;;;3.33;;
55601;SDS011;59921;51.332;12.410;2023-05-02T14:20:19;4.18;;;3.03;;
55601;SDS011;59921;51.332;12.410;2023-05-02T14:22:45;4.03;;;3.10;;
55601;SDS011;59921;51.332;12.410;2023-05-02T14:25:10;4.25;;;2.97;;
55601;SDS011;59921;51.332;12.410;2023-05-02T14:27:37;5.05;;;3.10;;
55601;SDS011;59921;51.332;12.410;2023-05-02T14:30:03;4.28;;;3.28;;
55601;SDS011;59921;51.332;12.410;2023-05-02T14:32:29;4.40;;;3.30;;
55601;SDS011;59921;51.332;12.410;2023-05-02T14:34:55;4.18;;;3.05;;
55601;SDS011;59921;51.332;12.410;2023-05-02T14:37:20;4.15;;;2.95;;
55601;SDS011;59921;51.332;12.410;2023-05-02T14:39:46;4.10;;;2.70;;
55601;SDS011;59921;51.332;12.410;2023-05-02T14:42:13;5.03;;;3.10;;
55601;SDS011;59921;51.332;12.410;2023-05-02T14:44:39;3.95;;;2.90;;
55601;SDS011;59921;51.332;12.410;2023-05-02T14:47:06;3.80;;;2.92;;
55601;SDS011;59921;51.332;12.410;2023-05-02T14:49:31;3.83;;;2.92;;
55601;SDS011;59921;51.332;12.410;2023-05-02T14:51:57;4.57;;;3.17;;
55601;SDS011;59921;51.332;12.410;2023-05-02T14:54:28;3.53;;;2.83;;
55601;SDS011;59921;51.332;12.410;2023-05-02T14:56:54;3.67;;;2.85;;
55601;SDS011;59921;51.332;12.410;2023-05-02T14:59:20;3.58;;;2.85;;
55601;SDS011;59921;51.332;12.410;2023-05-02T15:01:46;5.40;;;2.90;;
55601;SDS011;59921;51.332;12.410;2023-05-02T15:04:12;4.38;;;3.25;;
55601;SDS011;59921;51.332;12.410;2023-05-02T15:06:42;3.53;;;2.75;;
55601;SDS011;59921;51.332;12.410;2023-05-02T15:09:07;4.10;;;2.92;;
55601;SDS011;59921;51.332;12.410;2023-05-02T15:11:33;4.25;;;3.00;;
55601;SDS011;59921;51.332;12.410;2023-05-02T15:13:59;3.90;;;2.95;;
55601;SDS011;59921;51.332;12.410;2023-05-02T15:16:25;3.88;;;2.80;;
55601;SDS011;59921;51.332;12.410;2023-05-02T15:18:54;3.50;;;2.85;;
55601;SDS011;59921;51.332;12.410;2023-05-02T15:21:19;3.83;;;2.70;;
55601;SDS011;59921;51.332;12.410;2023-05-02T15:23:46;3.85;;;3.03;;
55601;SDS011;59921;51.332;12.410;2023-05-02T15:26:11;3.38;;;2.60;;
55601;SDS011;59921;51.332;12.410;2023-05-02T15:28:37;3.53;;;2.63;;
55601;SDS011;59921;51.332;12.410;2023-05-02T15:31:03;3.53;;;2.80;;